createdAt,value
2023-03-16T00:01:06.699Z,38631.88
2023-03-16T00:03:34.462Z,38641.84
2023-03-16T00:06:01.999Z,38615.94
2023-03-16T00:08:29.227Z,38615.94
2023-03-16T00:10:58.593Z,38689.69
2023-03-16T00:13:29.654Z,38643.84
2023-03-16T00:15:59.315Z,38669.78
2023-03-16T00:18:28.998Z,38647.84
2023-03-16T00:21:05.227Z,38673.75
2023-03-16T00:23:35.977Z,38673.75
2023-03-16T00:26:07.907Z,38677.75
2023-03-16T00:28:36.184Z,38663.78
2023-03-16T00:31:08.960Z,38683.72
2023-03-16T00:33:39.867Z,38685.72
2023-03-16T00:36:09.380Z,38705.66
2023-03-16T00:38:39.810Z,38697.69
2023-03-16T00:41:09.125Z,38669.78
2023-03-16T00:43:41.069Z,38693.69
2023-03-16T00:46:11.522Z,38723.59
2023-03-16T00:48:42.505Z,38695.69
2023-03-16T00:51:12.901Z,38683.72
2023-03-16T00:53:41.913Z,38701.66
2023-03-16T00:56:12.622Z,38639.88
2023-03-16T00:58:43.198Z,38693.69
2023-03-16T01:01:16.479Z,38689.69
2023-03-16T01:03:43.693Z,38693.69
2023-03-16T01:06:13.855Z,38701.66
2023-03-16T01:08:43.415Z,38713.63
2023-03-16T01:11:13.286Z,38725.59
2023-03-16T01:13:42.801Z,38707.66
2023-03-16T01:16:10.977Z,38761.47
2023-03-16T01:18:39.088Z,38733.56
2023-03-16T01:21:09.153Z,38769.44
2023-03-16T01:23:37.371Z,38755.50
2023-03-16T01:26:04.885Z,38775.44
2023-03-16T01:28:33.505Z,38809.31
2023-03-16T01:31:09.496Z,38821.28
2023-03-16T01:33:37.098Z,38952.88
2023-03-16T01:36:25.011Z,38873.13
2023-03-16T01:38:56.736Z,38805.34
2023-03-16T01:41:27.168Z,38853.19
2023-03-16T01:43:58.289Z,38859.16
2023-03-16T01:46:28.494Z,38847.19
2023-03-16T01:49:10.249Z,38861.16
2023-03-16T01:51:52.944Z,38901.03
2023-03-16T01:54:37.585Z,38924.94
2023-03-16T01:57:07.696Z,38889.06
2023-03-16T02:00:15.544Z,38885.09
2023-03-16T02:02:48.835Z,38879.09
2023-03-16T02:05:43.246Z,38918.97
2023-03-16T02:08:13.896Z,38905.00
2023-03-16T02:10:41.394Z,38889.06
2023-03-16T02:13:09.005Z,38972.81
2023-03-16T02:15:37.590Z,38956.84
2023-03-16T02:18:08.820Z,38952.88
2023-03-16T02:20:42.605Z,38956.84
2023-03-16T02:23:18.713Z,38998.72
2023-03-16T02:26:13.059Z,39010.69
2023-03-16T02:29:01.640Z,39026.63
2023-03-16T02:31:31.840Z,38988.75
2023-03-16T02:34:01.973Z,39048.56
2023-03-16T02:36:30.661Z,39002.72
2023-03-16T02:39:00.220Z,39052.56
2023-03-16T02:41:28.311Z,39012.69
2023-03-16T02:44:24.299Z,39076.47
2023-03-16T02:47:01.392Z,39122.34
2023-03-16T02:49:37.941Z,39092.44
2023-03-16T02:52:09.336Z,39056.53
2023-03-16T02:54:39.703Z,39092.44
2023-03-16T02:57:08.224Z,39066.50
2023-03-16T02:59:36.312Z,39134.31
2023-03-16T03:02:04.795Z,39018.66
2023-03-16T03:04:33.081Z,39132.31
2023-03-16T03:07:04.728Z,39164.22
2023-03-16T03:09:47.509Z,39126.31
2023-03-16T03:12:19.303Z,39176.16
2023-03-16T03:14:46.837Z,39172.19
2023-03-16T03:17:19.865Z,39204.09
2023-03-16T03:19:50.141Z,39200.09
2023-03-16T03:22:18.861Z,39194.13
2023-03-16T03:24:46.406Z,39208.06
2023-03-16T03:27:14.817Z,39152.25
2023-03-16T03:29:41.992Z,39190.13
2023-03-16T03:32:09.461Z,39279.84
2023-03-16T03:34:37.019Z,39287.81
2023-03-16T03:37:05.983Z,39285.84
2023-03-16T03:39:33.427Z,39232.00
2023-03-16T03:42:03.034Z,39299.78
2023-03-16T03:44:32.749Z,39291.81
2023-03-16T03:47:04.184Z,39263.91
2023-03-16T03:49:31.797Z,39281.84
2023-03-16T03:51:59.223Z,39311.75
2023-03-16T03:54:51.602Z,39279.84
2023-03-16T03:57:20.888Z,39277.84
2023-03-16T03:59:53.782Z,39323.72
2023-03-16T04:02:21.122Z,39367.59
2023-03-16T04:04:57.050Z,39387.53
2023-03-16T04:07:24.214Z,39427.41
2023-03-16T04:09:55.873Z,39427.41
2023-03-16T04:12:28.353Z,39355.63
2023-03-16T04:14:56.419Z,39367.59
2023-03-16T04:17:25.418Z,39351.63
2023-03-16T04:19:54.085Z,39331.69
2023-03-16T04:22:23.246Z,39311.75
2023-03-16T04:24:53.622Z,39355.63
2023-03-16T04:27:24.759Z,39335.69
2023-03-16T04:29:55.694Z,39261.91
2023-03-16T04:32:26.215Z,39694.59
2023-03-16T04:34:55.908Z,41015.00
2023-03-16T04:37:27.466Z,41374.13
2023-03-16T04:39:55.195Z,40919.25
2023-03-16T04:42:24.794Z,40420.56
2023-03-16T04:44:52.132Z,40113.41
2023-03-16T04:47:23.139Z,39846.16
2023-03-16T04:49:50.430Z,39567.00
2023-03-16T04:52:17.763Z,39417.44
2023-03-16T04:54:47.407Z,39355.63
2023-03-16T04:57:19.317Z,39245.97
2023-03-16T04:59:51.535Z,39186.13
2023-03-16T05:02:27.826Z,39166.19
2023-03-16T05:04:59.270Z,39102.41
2023-03-16T05:07:27.505Z,39092.44
2023-03-16T05:09:58.691Z,39036.59
2023-03-16T05:12:27.213Z,39008.69
2023-03-16T05:15:00.007Z,38960.84
2023-03-16T05:17:38.394Z,38948.88
2023-03-16T05:20:08.212Z,38905.00
2023-03-16T05:22:37.415Z,38845.22
2023-03-16T05:25:59.773Z,38869.13
2023-03-16T05:28:28.303Z,38873.13
2023-03-16T05:31:03.739Z,38833.25
2023-03-16T05:33:37.634Z,38805.34
2023-03-16T05:36:08.646Z,38787.38
2023-03-16T05:38:39.157Z,38757.50
2023-03-16T05:41:09.461Z,38755.50
2023-03-16T05:44:09.224Z,38723.59
2023-03-16T05:47:09.171Z,38705.66
2023-03-16T05:49:45.370Z,38737.56
2023-03-16T05:52:22.658Z,38703.66
2023-03-16T05:54:49.823Z,38683.72
2023-03-16T05:57:19.416Z,38731.56
2023-03-16T05:59:53.156Z,38735.56
2023-03-16T06:02:21.368Z,38765.47
2023-03-16T06:04:48.632Z,38815.31
2023-03-16T06:07:16.139Z,38689.69
2023-03-16T06:09:43.811Z,38733.56
2023-03-16T06:12:15.318Z,38721.59
2023-03-16T06:14:46.167Z,38785.41
2023-03-16T06:17:14.040Z,38767.47
2023-03-16T06:19:42.973Z,38749.50
2023-03-16T06:22:10.470Z,38765.47
2023-03-16T06:24:50.726Z,38755.50
2023-03-16T06:27:27.121Z,38773.44
2023-03-16T06:30:13.563Z,38813.31
2023-03-16T06:32:45.440Z,38771.44
2023-03-16T06:35:13.705Z,38709.63
2023-03-16T06:37:46.782Z,38685.72
2023-03-16T06:40:38.470Z,38637.88
2023-03-16T06:43:06.538Z,38693.69
2023-03-16T06:45:36.864Z,38518.25
2023-03-16T06:48:04.256Z,38619.94
2023-03-16T06:50:34.020Z,38693.69
2023-03-16T06:53:01.394Z,38735.56
2023-03-16T06:55:34.581Z,38727.59
2023-03-16T06:58:02.212Z,38793.38
2023-03-16T07:00:30.869Z,38827.25
2023-03-16T07:03:00.420Z,38823.28
2023-03-16T07:05:29.174Z,38835.25
2023-03-16T07:08:30.781Z,38877.09
2023-03-16T07:10:58.099Z,38938.91
2023-03-16T07:13:26.823Z,38960.84
2023-03-16T07:15:55.349Z,38956.84
2023-03-16T07:18:26.178Z,39048.56
2023-03-16T07:20:56.529Z,39150.25
2023-03-16T07:23:26.530Z,39257.91
2023-03-16T07:25:58.995Z,39455.31
2023-03-16T07:28:28.115Z,39523.13
2023-03-16T07:31:03.904Z,39515.13
2023-03-16T07:33:37.898Z,39634.78
2023-03-16T07:36:09.393Z,39718.53
2023-03-16T07:38:41.671Z,39945.88
2023-03-16T07:41:09.141Z,40087.47
2023-03-16T07:43:36.515Z,40350.75
2023-03-16T07:46:06.442Z,40671.88
2023-03-16T07:48:34.574Z,40977.09
2023-03-16T07:51:03.255Z,41294.31
2023-03-16T07:53:32.016Z,41017.00
2023-03-16T07:56:17.834Z,40911.28
2023-03-16T07:58:48.393Z,41360.16
2023-03-16T08:01:16.359Z,41677.38
2023-03-16T08:03:44.546Z,42138.34
2023-03-16T08:06:12.196Z,41960.75
2023-03-16T08:08:39.484Z,42150.31
2023-03-16T08:11:07.673Z,42232.13
2023-03-16T08:13:54.278Z,42030.59
2023-03-16T08:16:22.986Z,42635.28
2023-03-16T08:18:51.842Z,43653.34
2023-03-16T08:21:20.439Z,43948.84
2023-03-16T08:23:50.553Z,43769.16
2023-03-16T08:26:22.547Z,42773.00
2023-03-16T08:28:55.158Z,42711.13
2023-03-16T08:31:25.345Z,43034.50
2023-03-16T08:34:07.640Z,43369.88
2023-03-16T08:36:39.764Z,42882.78
2023-03-16T08:39:07.838Z,43441.72
2023-03-16T08:41:47.063Z,43637.38
2023-03-16T08:44:25.534Z,43745.19
2023-03-16T08:46:55.281Z,43952.84
2023-03-16T08:49:24.057Z,43681.31
2023-03-16T08:52:00.795Z,43359.88
2023-03-16T08:54:28.088Z,43513.59
2023-03-16T08:56:57.234Z,43867.00
2023-03-16T08:59:30.272Z,43908.91
2023-03-16T09:01:58.932Z,43651.34
2023-03-16T09:04:28.726Z,43066.44
2023-03-16T09:07:07.985Z,42661.22
2023-03-16T09:09:36.363Z,43445.72
2023-03-16T09:12:04.447Z,43186.19
2023-03-16T09:14:35.276Z,46249.81
2023-03-16T09:17:02.507Z,46877.25
2023-03-16T09:19:47.834Z,46233.84
2023-03-16T09:22:18.328Z,46329.75
2023-03-16T09:24:45.520Z,46016.06
2023-03-16T09:27:12.938Z,50352.31
2023-03-16T09:29:41.136Z,57160.78
2023-03-16T09:32:09.888Z,58957.28
2023-03-16T09:34:37.108Z,62553.16
2023-03-16T09:37:05.190Z,64095.41
2023-03-16T09:39:34.781Z,65381.16
2023-03-16T09:42:16.326Z,67182.00
2023-03-16T09:44:45.944Z,67954.09
2023-03-16T09:47:16.595Z,69241.31
2023-03-16T09:49:49.336Z,71044.19
2023-03-16T09:52:33.990Z,71044.19
2023-03-16T09:55:10.191Z,70528.97
2023-03-16T09:57:44.613Z,71559.47
2023-03-16T10:00:19.950Z,72590.28
2023-03-16T10:03:24.891Z,71559.47
2023-03-16T10:05:59.839Z,70786.59
2023-03-16T10:08:58.475Z,74137.09
2023-03-16T10:11:38.081Z,72074.84
2023-03-16T10:14:17.405Z,72590.28
2023-03-16T10:16:51.621Z,70528.97
2023-03-16T10:19:42.338Z,71817.16
2023-03-16T10:22:20.668Z,70528.97
2023-03-16T10:24:47.782Z,71044.19
2023-03-16T10:27:21.071Z,70786.59
2023-03-16T10:29:48.848Z,70528.97
2023-03-16T10:32:20.486Z,68983.81
2023-03-16T10:35:02.569Z,68726.38
2023-03-16T10:37:32.808Z,66152.84
2023-03-16T10:40:00.772Z,65638.38
2023-03-16T10:42:34.183Z,65895.59
2023-03-16T10:45:04.266Z,68468.91
2023-03-16T10:47:33.716Z,68468.91
2023-03-16T10:50:16.886Z,54595.97
2023-03-16T10:52:51.136Z,52121.19
2023-03-16T10:55:24.918Z,52001.09
2023-03-16T10:57:55.098Z,50676.41
2023-03-16T11:00:28.836Z,48920.25
2023-03-16T11:02:59.751Z,47840.63
2023-03-16T11:05:33.148Z,46034.03
2023-03-16T11:08:23.755Z,44242.38
2023-03-16T11:11:08.494Z,44396.13
2023-03-16T11:13:38.635Z,46509.56
2023-03-16T11:16:26.028Z,46503.56
2023-03-16T11:19:20.631Z,47181.03
2023-03-16T11:21:51.601Z,48232.47
2023-03-16T11:24:50.715Z,48462.38
2023-03-16T11:27:24.912Z,47670.72
2023-03-16T11:30:23.834Z,46749.38
2023-03-16T11:32:54.261Z,46089.97
2023-03-16T11:35:33.149Z,43946.84
2023-03-16T11:38:18.940Z,43403.81
2023-03-16T11:40:58.174Z,43122.31
2023-03-16T11:43:47.838Z,42990.56
2023-03-16T11:46:21.173Z,45718.38
2023-03-16T11:48:51.387Z,44308.28
2023-03-16T11:51:35.084Z,42812.94
2023-03-16T11:54:02.540Z,43657.34
2023-03-16T11:56:52.938Z,42689.19
2023-03-16T12:00:02.330Z,42425.72
2023-03-16T12:02:37.687Z,43172.22
2023-03-16T12:05:14.529Z,43018.53
2023-03-16T12:08:04.312Z,42196.22
2023-03-16T12:10:41.903Z,42443.69
2023-03-16T12:13:22.855Z,42012.63
2023-03-16T12:15:59.685Z,43108.34
2023-03-16T12:18:45.223Z,40805.53
2023-03-16T12:21:27.293Z,40727.75
2023-03-16T12:23:59.651Z,41188.56
2023-03-16T12:26:32.564Z,41721.28
2023-03-16T12:29:12.519Z,41643.47
2023-03-16T12:31:58.186Z,41890.91
2023-03-16T12:34:53.291Z,41645.47
2023-03-16T12:37:38.939Z,41625.50
2023-03-16T12:40:25.772Z,41218.50
2023-03-16T12:43:19.014Z,40867.38
2023-03-16T12:46:00.154Z,40919.25
2023-03-16T12:48:52.410Z,41086.81
2023-03-16T12:51:19.732Z,41312.25
2023-03-16T12:53:55.294Z,40983.09
2023-03-16T12:56:36.708Z,40480.41
2023-03-16T12:59:07.644Z,40699.81
2023-03-16T13:01:51.146Z,40111.41
2023-03-16T13:04:34.052Z,40143.31
2023-03-16T13:07:07.890Z,39941.91
2023-03-16T13:09:42.080Z,39582.94
2023-03-16T13:12:21.523Z,39598.91
2023-03-16T13:14:50.323Z,39656.72
2023-03-16T13:17:18.040Z,39572.97
2023-03-16T13:19:59.773Z,39521.13
2023-03-16T13:22:43.055Z,40340.78
2023-03-16T13:25:23.274Z,39056.53
2023-03-16T13:27:54.625Z,38976.78
2023-03-16T13:30:32.010Z,39016.66
2023-03-16T13:33:27.347Z,38833.25
2023-03-16T13:35:57.513Z,38845.22
2023-03-16T13:38:28.539Z,38972.81
2023-03-16T13:41:10.178Z,39553.03
2023-03-16T13:43:44.162Z,40159.28
2023-03-16T13:46:23.522Z,41633.50
2023-03-16T13:48:51.317Z,42779.00
2023-03-16T13:51:22.780Z,42862.81
2023-03-16T13:53:51.488Z,45203.00
2023-03-16T13:56:28.785Z,44843.47
2023-03-16T13:58:58.598Z,44507.97
2023-03-16T14:01:27.634Z,44222.41
2023-03-16T14:04:08.814Z,43393.81
2023-03-16T14:06:36.777Z,39634.78
2023-03-16T14:09:17.812Z,38861.16
2023-03-16T14:11:48.640Z,38763.47
2023-03-16T14:14:20.326Z,39303.78
2023-03-16T14:16:47.471Z,40163.28
2023-03-16T14:19:20.383Z,40737.72
2023-03-16T14:21:50.071Z,41453.91
2023-03-16T14:24:37.178Z,41813.06
2023-03-16T14:27:25.447Z,42603.34
2023-03-16T14:30:18.416Z,43669.31
2023-03-16T14:33:33.716Z,44727.66
2023-03-16T14:36:13.224Z,46121.94
2023-03-16T14:38:43.813Z,47169.03
2023-03-16T14:41:24.224Z,48016.56
2023-03-16T14:43:56.213Z,49154.22
2023-03-16T14:46:38.554Z,50592.38
2023-03-16T14:49:27.971Z,52085.16
2023-03-16T14:52:02.313Z,54041.19
2023-03-16T14:54:29.800Z,55878.13
2023-03-16T14:57:05.709Z,55878.13
2023-03-16T14:59:33.860Z,57417.38
2023-03-16T15:02:04.235Z,58957.28
2023-03-16T15:04:34.744Z,59984.28
2023-03-16T15:07:20.258Z,60497.91
2023-03-16T15:09:49.559Z,62553.16
2023-03-16T15:12:19.746Z,62810.16
2023-03-16T15:15:06.161Z,63324.19
2023-03-16T15:17:33.610Z,66152.84
2023-03-16T15:20:01.314Z,66410.09
2023-03-16T15:22:33.693Z,66410.09
2023-03-16T15:25:17.949Z,67954.09
2023-03-16T15:27:52.612Z,69241.31
2023-03-16T15:30:24.702Z,69756.31
2023-03-16T15:32:52.849Z,70528.97
2023-03-16T15:35:22.797Z,71044.19
2023-03-16T15:37:50.180Z,71044.19
2023-03-16T15:40:26.210Z,70528.97
2023-03-16T15:42:55.578Z,71044.19
2023-03-16T15:45:23.517Z,70271.41
2023-03-16T15:47:53.181Z,70528.97
2023-03-16T15:50:24.393Z,71559.47
2023-03-16T15:52:59.338Z,72332.56
2023-03-16T15:55:33.060Z,72332.56
2023-03-16T15:58:02.599Z,73621.41
2023-03-16T16:00:35.657Z,73879.22
2023-03-16T16:03:05.289Z,74394.94
2023-03-16T16:05:33.685Z,74910.75
2023-03-16T16:08:00.912Z,74652.84
2023-03-16T16:10:38.314Z,74652.84
2023-03-16T16:13:43.033Z,74652.84
2023-03-16T16:24:09.544Z,74652.84
2023-03-16T16:24:39.534Z,75684.56
2023-03-16T16:27:11.194Z,75426.59
2023-03-16T16:29:38.936Z,75684.56
2023-03-16T16:32:37.004Z,75426.59
2023-03-16T16:35:16.968Z,75942.56
2023-03-16T16:37:49.150Z,76200.56
2023-03-16T16:40:25.693Z,76200.56
2023-03-16T16:42:54.138Z,75684.56
2023-03-16T16:45:25.188Z,75942.56
2023-03-16T16:47:55.683Z,76458.59
2023-03-16T16:50:27.540Z,76716.63
2023-03-16T16:52:55.312Z,76716.63
2023-03-16T16:55:24.354Z,76458.59
2023-03-16T16:57:54.846Z,75426.59
2023-03-16T17:00:25.063Z,75168.66
2023-03-16T17:02:57.436Z,74394.94
2023-03-16T17:05:28.069Z,74394.94
2023-03-16T17:07:56.944Z,74652.84
2023-03-16T17:10:31.350Z,74652.84
2023-03-16T17:12:58.804Z,74910.75
2023-03-16T17:15:29.632Z,74652.84
2023-03-16T17:18:10.484Z,73879.22
2023-03-16T17:20:39.022Z,74652.84
2023-03-16T17:23:34.066Z,73879.22
2023-03-16T17:26:11.736Z,75168.66
2023-03-16T17:28:43.479Z,74910.75
2023-03-16T17:31:13.176Z,74910.75
2023-03-16T17:33:40.598Z,74910.75
2023-03-16T17:36:09.565Z,75168.66
2023-03-16T17:38:37.305Z,76458.59
2023-03-16T17:41:06.953Z,77748.97
2023-03-16T17:43:34.250Z,78265.28
2023-03-16T17:46:03.270Z,78523.44
2023-03-16T17:48:30.629Z,78781.66
2023-03-16T17:50:57.815Z,79039.88
2023-03-16T17:53:25.753Z,79298.09
2023-03-16T17:55:53.807Z,79298.09
2023-03-16T17:58:30.135Z,79298.09
2023-03-16T18:00:58.665Z,79039.88
2023-03-16T18:03:29.998Z,78781.66
2023-03-16T18:05:58.092Z,78781.66
2023-03-16T18:08:33.264Z,78781.66
2023-03-16T18:11:10.295Z,78781.66
2023-03-16T18:13:40.556Z,79039.88
2023-03-16T18:16:08.672Z,79556.34
2023-03-16T18:18:42.686Z,79556.34
2023-03-16T18:21:23.394Z,79556.34
2023-03-16T18:23:51.664Z,82398.44
2023-03-16T18:26:24.574Z,81364.69
2023-03-16T18:28:55.505Z,81106.28
2023-03-16T18:31:26.320Z,80589.56
2023-03-16T18:33:58.369Z,80847.91
2023-03-16T18:36:37.716Z,81364.69
2023-03-16T18:39:07.736Z,81623.09
2023-03-16T18:41:35.980Z,81623.09
2023-03-16T18:44:25.718Z,80847.91
2023-03-16T18:47:01.474Z,81881.53
2023-03-16T18:49:36.807Z,81364.69
2023-03-16T18:52:12.596Z,81881.53
2023-03-16T18:54:45.477Z,81881.53
2023-03-16T18:57:24.817Z,81623.09
2023-03-16T18:59:52.887Z,81623.09
2023-03-16T19:02:34.460Z,82139.97
2023-03-16T19:05:04.409Z,81881.53
2023-03-16T19:07:38.733Z,81364.69
2023-03-16T19:10:19.086Z,80847.91
2023-03-16T19:12:46.720Z,80847.91
2023-03-16T19:15:21.139Z,80589.56
2023-03-16T19:17:51.182Z,80589.56
2023-03-16T19:20:21.516Z,80847.91
2023-03-16T19:22:51.205Z,80847.91
2023-03-16T19:25:25.915Z,80847.91
2023-03-16T19:27:53.881Z,82139.97
2023-03-16T19:30:31.882Z,82139.97
2023-03-16T19:32:59.988Z,81881.53
2023-03-16T19:35:48.549Z,81364.69
2023-03-16T19:38:18.644Z,81364.69
2023-03-16T19:40:51.371Z,80847.91
2023-03-16T19:43:22.790Z,80847.91
2023-03-16T19:45:50.833Z,80589.56
2023-03-16T19:48:34.897Z,79556.34
2023-03-16T19:51:02.272Z,80072.94
2023-03-16T19:53:29.691Z,79556.34
2023-03-16T19:55:57.134Z,79298.09
2023-03-16T19:58:32.067Z,78781.66
2023-03-16T20:01:01.088Z,78265.28
2023-03-16T20:03:36.372Z,77232.75
2023-03-16T20:06:03.777Z,77490.88
2023-03-16T20:08:31.666Z,77490.88
2023-03-16T20:11:03.929Z,77232.75
2023-03-16T20:13:31.528Z,76974.69
2023-03-16T20:16:01.550Z,76200.56
2023-03-16T20:18:29.398Z,75168.66
2023-03-16T20:20:57.566Z,75426.59
2023-03-16T20:23:27.214Z,74652.84
2023-03-16T20:25:57.430Z,75168.66
2023-03-16T20:28:36.239Z,74137.09
2023-03-16T20:31:08.051Z,73621.41
2023-03-16T20:33:35.332Z,74652.84
2023-03-16T20:36:05.482Z,74394.94
2023-03-16T20:38:33.118Z,73621.41
2023-03-16T20:41:00.745Z,73363.59
2023-03-16T20:43:31.992Z,72848.03
2023-03-16T20:46:01.471Z,72332.56
2023-03-16T20:48:32.444Z,72332.56
2023-03-16T20:51:04.099Z,72590.28
2023-03-16T20:53:33.226Z,72590.28
2023-03-16T20:56:03.073Z,72074.84
2023-03-16T20:58:31.086Z,71817.16
2023-03-16T21:01:02.077Z,71817.16
2023-03-16T21:03:33.372Z,71559.47
2023-03-16T21:06:01.228Z,71301.84
2023-03-16T21:08:28.661Z,71817.16
2023-03-16T21:10:57.116Z,70786.59
2023-03-16T21:13:32.948Z,70786.59
2023-03-16T21:16:02.006Z,70786.59
2023-03-16T21:18:30.332Z,70271.41
2023-03-16T21:20:58.769Z,70013.84
2023-03-16T21:23:28.830Z,70271.41
2023-03-16T21:26:01.342Z,70786.59
2023-03-16T21:28:32.399Z,69498.81
2023-03-16T21:31:03.115Z,69498.81
2023-03-16T21:33:39.926Z,68211.50
2023-03-16T21:36:14.120Z,69498.81
2023-03-16T21:38:44.401Z,69498.81
2023-03-16T21:41:16.766Z,69498.81
2023-03-16T21:43:44.366Z,69241.31
2023-03-16T21:46:18.268Z,69756.31
2023-03-16T21:48:49.576Z,69756.31
2023-03-16T21:51:24.815Z,69756.31
2023-03-16T21:53:53.659Z,70013.84
2023-03-16T21:56:23.731Z,69498.81
2023-03-16T21:58:50.968Z,68211.50
2023-03-16T22:01:32.961Z,66924.69
2023-03-16T22:04:07.439Z,67182.00
2023-03-16T22:06:35.028Z,67439.34
2023-03-16T22:09:03.081Z,67182.00
2023-03-16T22:11:33.422Z,66924.69
2023-03-16T22:14:02.836Z,66410.09
2023-03-16T22:16:36.016Z,66924.69
2023-03-16T22:19:04.435Z,65638.38
2023-03-16T22:21:50.370Z,65638.38
2023-03-16T22:24:23.715Z,64866.81
2023-03-16T22:26:53.923Z,65381.16
2023-03-16T22:29:20.981Z,67182.00
2023-03-16T22:31:48.829Z,65895.59
2023-03-16T22:34:42.980Z,64609.66
2023-03-16T22:37:15.669Z,64352.53
2023-03-16T22:39:43.825Z,64352.53
2023-03-16T22:42:38.499Z,62296.19
2023-03-16T22:45:21.418Z,63838.31
2023-03-16T22:47:51.561Z,64352.53
2023-03-16T22:50:21.866Z,64095.41
2023-03-16T22:52:57.198Z,63838.31
2023-03-16T22:55:36.581Z,63067.16
2023-03-16T22:58:19.315Z,62553.16
2023-03-16T23:00:47.127Z,62553.16
2023-03-16T23:03:24.131Z,61011.59
2023-03-16T23:05:52.185Z,60754.75
2023-03-16T23:08:23.603Z,59470.75
2023-03-16T23:10:51.896Z,59727.50
2023-03-16T23:13:24.050Z,59214.00
2023-03-16T23:15:53.497Z,57673.97
2023-03-16T23:18:23.990Z,57673.97
2023-03-16T23:20:52.416Z,58700.59
2023-03-16T23:23:22.439Z,57160.78
2023-03-16T23:25:49.770Z,58187.25
2023-03-16T23:28:25.383Z,57160.78
2023-03-16T23:30:52.941Z,56134.63
2023-03-16T23:33:20.155Z,56391.13
2023-03-16T23:35:47.502Z,55365.22
2023-03-16T23:38:15.013Z,55365.22
2023-03-16T23:40:42.244Z,54595.97
2023-03-16T23:43:11.540Z,53570.59
2023-03-16T23:45:42.265Z,52589.59
2023-03-16T23:48:15.924Z,51512.78
2023-03-16T23:50:46.268Z,53194.19
2023-03-16T23:53:20.039Z,52011.09
2023-03-16T23:55:49.934Z,51140.59
2023-03-16T23:58:17.210Z,50130.25
